createdAt,value
2023-04-13T00:01:28.406Z,53.35
2023-04-13T00:04:07.230Z,54.23
2023-04-13T00:06:41.756Z,52.88
2023-04-13T00:09:08.886Z,53.76
2023-04-13T00:11:36.175Z,53.25
2023-04-13T00:14:03.502Z,53.42
2023-04-13T00:16:33.228Z,53.27
2023-04-13T00:19:00.551Z,53.36
2023-04-13T00:21:33.259Z,53.55
2023-04-13T00:24:00.889Z,54.67
2023-04-13T00:26:32.768Z,54.88
2023-04-13T00:29:05.228Z,55.25
2023-04-13T00:31:35.570Z,53.94
2023-04-13T00:34:09.938Z,53.65
2023-04-13T00:36:39.908Z,53.76
2023-04-13T00:39:07.574Z,53.38
2023-04-13T00:41:34.845Z,52.78
2023-04-13T00:44:02.480Z,51.45
2023-04-13T00:46:32.631Z,50.99
2023-04-13T00:49:02.125Z,51.36
2023-04-13T00:51:30.589Z,50.09
2023-04-13T00:54:00.907Z,50.76
2023-04-13T00:56:31.324Z,50.54
2023-04-13T00:59:02.615Z,50.76
2023-04-13T01:01:30.714Z,49.95
2023-04-13T01:04:01.214Z,49.03
2023-04-13T01:06:42.234Z,47.74
2023-04-13T01:09:23.143Z,47.92
2023-04-13T01:12:08.701Z,47.84
2023-04-13T01:14:42.106Z,47.24
2023-04-13T01:17:21.979Z,47.48
2023-04-13T01:20:14.738Z,47.11
2023-04-13T01:22:45.960Z,47.34
2023-04-13T01:25:38.362Z,47.74
2023-04-13T01:28:23.727Z,47.92
2023-04-13T01:30:57.957Z,47.79
2023-04-13T01:33:25.770Z,48.09
2023-04-13T01:35:54.568Z,48.37
2023-04-13T01:38:27.652Z,48.40
2023-04-13T01:40:58.443Z,47.86
2023-04-13T01:43:28.526Z,48.59
2023-04-13T01:46:26.667Z,50.00
2023-04-13T01:49:08.073Z,49.31
2023-04-13T01:51:53.744Z,51.05
2023-04-13T01:54:29.137Z,52.14
2023-04-13T01:57:00.431Z,51.52
2023-04-13T01:59:28.438Z,52.19
2023-04-13T02:02:06.344Z,52.21
2023-04-13T02:04:34.304Z,52.01
2023-04-13T02:07:01.905Z,52.58
2023-04-13T02:09:35.694Z,51.54
2023-04-13T02:12:03.942Z,51.99
2023-04-13T02:14:33.698Z,52.49
2023-04-13T02:17:06.412Z,52.10
2023-04-13T02:19:34.928Z,52.06
2023-04-13T02:22:03.482Z,52.52
2023-04-13T02:24:30.684Z,50.70
2023-04-13T02:26:58.237Z,50.19
2023-04-13T02:29:30.784Z,50.79
2023-04-13T02:31:58.545Z,50.61
2023-04-13T02:34:29.341Z,50.88
2023-04-13T02:37:01.111Z,51.72
2023-04-13T02:39:35.813Z,53.32
2023-04-13T02:42:07.027Z,53.73
2023-04-13T02:44:34.860Z,53.24
2023-04-13T02:47:07.548Z,53.01
2023-04-13T02:49:36.071Z,53.64
2023-04-13T02:52:21.855Z,52.83
2023-04-13T02:55:03.603Z,50.63
2023-04-13T02:57:45.406Z,47.81
2023-04-13T03:00:16.584Z,46.64
2023-04-13T03:02:51.556Z,42.09
2023-04-13T03:05:21.424Z,41.23
2023-04-13T03:07:53.178Z,40.94
2023-04-13T03:10:23.636Z,40.99
2023-04-13T03:12:53.775Z,41.10
2023-04-13T03:15:26.051Z,39.83
2023-04-13T03:17:55.891Z,39.67
2023-04-13T03:20:25.686Z,39.61
2023-04-13T03:23:01.317Z,38.17
2023-04-13T03:25:34.246Z,37.55
2023-04-13T03:28:05.998Z,38.58
2023-04-13T03:30:41.558Z,36.05
2023-04-13T03:33:11.630Z,36.26
2023-04-13T03:35:45.441Z,37.17
2023-04-13T03:38:24.672Z,35.62
2023-04-13T03:40:57.040Z,36.84
2023-04-13T03:43:29.510Z,36.61
2023-04-13T03:46:08.124Z,36.90
2023-04-13T03:48:43.973Z,36.46
2023-04-13T03:51:16.534Z,36.22
2023-04-13T03:53:48.689Z,36.33
2023-04-13T03:56:21.517Z,35.91
2023-04-13T03:58:53.838Z,36.44
2023-04-13T04:01:28.243Z,36.02
2023-04-13T04:03:58.240Z,36.79
2023-04-13T04:06:28.962Z,36.17
2023-04-13T04:09:28.320Z,35.51
2023-04-13T04:11:58.958Z,35.34
2023-04-13T04:14:42.529Z,35.52
2023-04-13T04:17:16.968Z,35.22
2023-04-13T04:19:45.026Z,35.26
2023-04-13T04:22:14.237Z,35.83
2023-04-13T04:24:45.585Z,34.95
2023-04-13T04:27:26.640Z,34.78
2023-04-13T04:30:15.775Z,35.34
2023-04-13T04:32:51.929Z,35.53
2023-04-13T04:35:28.980Z,35.35
2023-04-13T04:37:58.258Z,35.33
2023-04-13T04:40:30.236Z,35.66
2023-04-13T04:42:58.419Z,35.32
2023-04-13T04:45:44.186Z,34.64
2023-04-13T04:48:15.272Z,35.52
2023-04-13T04:50:49.145Z,34.46
2023-04-13T04:53:20.482Z,34.62
2023-04-13T04:55:53.933Z,34.58
2023-04-13T04:58:43.654Z,34.89
2023-04-13T05:01:15.105Z,33.90
2023-04-13T05:03:46.513Z,34.93
2023-04-13T05:06:34.198Z,34.86
2023-04-13T05:09:04.619Z,34.44
2023-04-13T05:11:37.335Z,35.24
2023-04-13T05:14:07.874Z,35.27
2023-04-13T05:16:38.406Z,34.04
2023-04-13T05:19:21.460Z,33.97
2023-04-13T05:21:55.087Z,34.20
2023-04-13T05:24:23.093Z,35.22
2023-04-13T05:26:55.386Z,34.90
2023-04-13T05:29:26.034Z,35.77
2023-04-13T05:31:56.159Z,35.29
2023-04-13T05:34:27.792Z,35.48
2023-04-13T05:37:27.260Z,35.21
2023-04-13T05:39:55.157Z,36.01
2023-04-13T05:42:34.135Z,35.46
2023-04-13T05:45:11.794Z,35.30
2023-04-13T05:47:54.951Z,37.65
2023-04-13T05:50:22.442Z,35.49
2023-04-13T05:52:54.080Z,35.42
2023-04-13T05:55:22.267Z,35.48
2023-04-13T05:57:56.335Z,35.45
2023-04-13T06:00:24.072Z,35.71
2023-04-13T06:03:05.625Z,35.51
2023-04-13T06:05:39.203Z,35.13
2023-04-13T06:08:13.781Z,35.12
2023-04-13T06:10:47.442Z,34.95
2023-04-13T06:13:19.683Z,35.48
2023-04-13T06:15:58.922Z,35.10
2023-04-13T06:18:29.453Z,35.05
2023-04-13T06:21:08.272Z,35.57
2023-04-13T06:23:42.016Z,35.18
2023-04-13T06:26:18.310Z,35.45
2023-04-13T06:28:57.033Z,35.42
2023-04-13T06:31:30.989Z,35.93
2023-04-13T06:34:07.648Z,36.08
2023-04-13T06:36:40.736Z,35.31
2023-04-13T06:39:14.769Z,36.43
2023-04-13T06:41:50.910Z,35.72
2023-04-13T06:44:40.980Z,36.06
2023-04-13T06:47:11.683Z,36.05
2023-04-13T06:49:49.551Z,36.29
2023-04-13T06:52:30.087Z,35.79
2023-04-13T06:55:00.399Z,35.77
2023-04-13T06:57:34.576Z,36.32
2023-04-13T07:00:15.337Z,36.28
2023-04-13T07:02:54.289Z,35.66
2023-04-13T07:06:07.826Z,35.61
2023-04-13T07:08:40.865Z,35.22
2023-04-13T07:11:11.290Z,35.33
2023-04-13T07:13:42.166Z,35.21
2023-04-13T07:16:13.426Z,35.70
2023-04-13T07:18:45.147Z,35.29
2023-04-13T07:21:12.849Z,35.39
2023-04-13T07:24:02.169Z,35.80
2023-04-13T07:26:34.182Z,36.09
2023-04-13T07:29:02.395Z,35.41
2023-04-13T07:31:35.841Z,35.63
2023-04-13T07:34:09.745Z,35.31
2023-04-13T07:36:53.470Z,34.69
2023-04-13T07:39:24.925Z,35.08
2023-04-13T07:41:54.770Z,35.27
2023-04-13T07:44:36.987Z,35.52
2023-04-13T07:47:05.492Z,35.12
2023-04-13T07:49:46.217Z,34.85
2023-04-13T07:52:22.922Z,34.39
2023-04-13T07:54:52.762Z,34.33
2023-04-13T07:57:25.755Z,34.17
2023-04-13T08:00:04.881Z,34.60
2023-04-13T08:02:44.511Z,34.74
2023-04-13T08:05:17.252Z,34.32
2023-04-13T08:07:46.846Z,34.29
2023-04-13T08:10:21.248Z,34.17
2023-04-13T08:12:53.500Z,33.84
2023-04-13T08:15:22.634Z,33.81
2023-04-13T08:17:55.501Z,33.71
2023-04-13T08:20:25.015Z,33.76
2023-04-13T08:22:58.069Z,33.02
2023-04-13T08:25:26.055Z,32.41
2023-04-13T08:27:53.599Z,32.02
2023-04-13T08:30:31.819Z,31.59
2023-04-13T08:33:13.525Z,30.57
2023-04-13T08:35:41.389Z,30.40
2023-04-13T08:38:17.112Z,29.94
2023-04-13T08:40:54.159Z,29.88
2023-04-13T08:43:30.914Z,29.88
2023-04-13T08:46:02.164Z,29.20
2023-04-13T08:48:39.203Z,28.95
2023-04-13T08:51:27.574Z,28.30
2023-04-13T08:53:58.693Z,28.86
2023-04-13T08:56:45.248Z,27.81
2023-04-13T08:59:28.436Z,27.18
2023-04-13T09:02:02.093Z,27.38
2023-04-13T09:04:36.331Z,27.24
2023-04-13T09:07:11.500Z,27.85
2023-04-13T09:09:46.071Z,26.40
2023-04-13T09:12:18.271Z,26.24
2023-04-13T09:14:48.772Z,25.47
2023-04-13T09:17:27.277Z,24.77
2023-04-13T09:20:00.214Z,25.66
2023-04-13T09:22:29.787Z,25.37
2023-04-13T09:24:57.300Z,25.72
2023-04-13T09:27:24.790Z,25.58
2023-04-13T09:29:59.469Z,24.93
2023-04-13T09:32:30.488Z,25.24
2023-04-13T09:35:08.237Z,24.04
2023-04-13T09:37:38.837Z,24.14
2023-04-13T09:40:15.618Z,22.38
2023-04-13T09:43:01.977Z,22.22
2023-04-13T09:45:41.000Z,22.45
2023-04-13T09:48:21.917Z,21.80
2023-04-13T09:51:07.129Z,21.63
2023-04-13T09:53:48.518Z,22.00
2023-04-13T09:56:17.971Z,21.46
2023-04-13T09:58:49.025Z,22.18
2023-04-13T10:01:19.306Z,21.45
2023-04-13T10:03:46.900Z,21.09
2023-04-13T10:06:17.634Z,20.91
2023-04-13T10:08:47.732Z,20.05
2023-04-13T10:11:16.414Z,20.28
2023-04-13T10:13:53.949Z,19.48
2023-04-13T10:16:26.692Z,18.87
2023-04-13T10:19:03.040Z,17.96
2023-04-13T10:21:35.984Z,18.25
2023-04-13T10:24:11.397Z,20.15
2023-04-13T10:26:46.997Z,21.56
2023-04-13T10:29:19.590Z,22.80
2023-04-13T10:31:53.618Z,23.52
2023-04-13T10:34:28.576Z,19.70
2023-04-13T10:36:58.550Z,19.48
2023-04-13T10:39:36.832Z,18.71
2023-04-13T10:42:12.608Z,18.33
2023-04-13T10:44:53.642Z,18.84
2023-04-13T10:47:31.007Z,18.98
2023-04-13T10:50:00.940Z,18.22
2023-04-13T10:52:32.055Z,17.58
2023-04-13T10:55:13.496Z,17.50
2023-04-13T10:57:44.018Z,17.62
2023-04-13T11:00:34.800Z,17.16
2023-04-13T11:03:12.583Z,17.24
2023-04-13T11:05:42.448Z,16.82
2023-04-13T11:08:24.544Z,17.02
2023-04-13T11:10:59.405Z,16.71
2023-04-13T11:13:29.969Z,17.21
2023-04-13T11:16:10.078Z,16.89
2023-04-13T11:18:42.142Z,16.63
2023-04-13T11:21:24.372Z,16.79
2023-04-13T11:24:02.220Z,17.18
2023-04-13T11:26:41.660Z,17.37
2023-04-13T11:29:19.297Z,16.81
2023-04-13T11:31:47.206Z,17.14
2023-04-13T11:34:26.678Z,16.82
2023-04-13T11:37:05.824Z,16.76
2023-04-13T11:39:36.756Z,17.18
2023-04-13T11:42:07.544Z,16.75
2023-04-13T11:44:39.048Z,16.43
2023-04-13T11:47:09.072Z,16.37
2023-04-13T11:49:40.950Z,15.48
2023-04-13T11:52:08.467Z,15.02
2023-04-13T11:54:35.857Z,14.61
2023-04-13T11:57:03.312Z,14.78
2023-04-13T11:59:33.284Z,14.69
2023-04-13T12:02:19.672Z,13.72
2023-04-13T12:05:06.758Z,14.78
2023-04-13T12:07:35.031Z,14.49
2023-04-13T12:10:05.901Z,15.03
2023-04-13T12:15:23.028Z,13.91
2023-04-13T12:18:14.330Z,13.77
2023-04-13T12:20:46.994Z,14.35
2023-04-13T12:23:27.973Z,14.36
2023-04-13T12:26:39.516Z,14.43
2023-04-13T12:29:01.961Z,14.42
2023-04-13T12:31:39.076Z,13.64
2023-04-13T12:34:12.268Z,13.58
2023-04-13T12:36:42.514Z,13.57
2023-04-13T12:39:09.733Z,13.75
2023-04-13T12:41:39.404Z,14.17
2023-04-13T12:44:09.391Z,14.04
2023-04-13T12:46:39.752Z,13.43
2023-04-13T12:49:10.308Z,13.12
2023-04-13T12:51:42.740Z,13.22
2023-04-13T12:54:13.630Z,13.66
2023-04-13T12:56:44.855Z,13.49
2023-04-13T12:59:15.788Z,13.79
2023-04-13T13:01:43.205Z,13.89
2023-04-13T13:04:16.310Z,12.83
2023-04-13T13:06:43.660Z,13.03
2023-04-13T13:09:11.012Z,13.20
2023-04-13T13:11:38.520Z,13.72
2023-04-13T13:14:11.040Z,13.90
2023-04-13T13:16:45.449Z,14.13
2023-04-13T13:19:13.099Z,14.18
2023-04-13T13:21:48.131Z,13.68
2023-04-13T13:24:18.520Z,13.52
2023-04-13T13:29:24.652Z,13.13
2023-04-13T13:31:56.859Z,12.72
2023-04-13T13:34:24.233Z,12.30
2023-04-13T13:36:51.664Z,12.77
2023-04-13T13:39:22.568Z,13.24
2023-04-13T13:41:54.781Z,13.04
2023-04-13T13:44:29.282Z,13.54
2023-04-13T13:47:00.107Z,13.34
2023-04-13T13:49:28.569Z,13.57
2023-04-13T13:52:13.178Z,13.38
2023-04-13T13:54:52.614Z,13.93
2023-04-13T13:57:19.857Z,14.35
2023-04-13T13:59:49.527Z,15.09
2023-04-13T14:02:18.111Z,15.04
2023-04-13T14:04:46.630Z,15.02
2023-04-13T14:07:17.343Z,14.94
2023-04-13T14:09:47.729Z,14.50
2023-04-13T14:12:16.412Z,14.54
2023-04-13T14:14:43.596Z,14.27
2023-04-13T14:17:18.945Z,15.05
2023-04-13T14:19:46.689Z,14.93
2023-04-13T14:22:13.986Z,14.88
2023-04-13T14:24:46.676Z,14.59
2023-04-13T14:27:14.153Z,15.52
2023-04-13T14:29:46.651Z,15.82
2023-04-13T14:32:17.125Z,16.06
2023-04-13T14:34:53.626Z,15.87
2023-04-13T14:37:25.415Z,15.65
2023-04-13T14:39:53.720Z,15.66
2023-04-13T14:42:32.180Z,15.91
2023-04-13T14:45:05.604Z,15.58
2023-04-13T14:47:35.360Z,15.68
2023-04-13T14:50:03.104Z,16.21
2023-04-13T14:52:30.373Z,15.68
2023-04-13T14:54:58.626Z,15.70
2023-04-13T14:57:28.712Z,15.19
2023-04-13T15:00:03.515Z,14.97
2023-04-13T15:02:35.258Z,15.58
2023-04-13T15:05:07.218Z,16.03
2023-04-13T15:07:38.256Z,15.78
2023-04-13T15:10:13.223Z,15.73
2023-04-13T15:12:43.959Z,16.23
2023-04-13T15:15:15.816Z,16.55
2023-04-13T15:18:01.836Z,16.84
2023-04-13T15:20:35.734Z,17.02
2023-04-13T15:23:03.147Z,17.00
2023-04-13T15:25:40.629Z,16.99
2023-04-13T15:28:09.382Z,16.66
2023-04-13T15:30:36.576Z,16.69
2023-04-13T15:33:07.401Z,16.43
2023-04-13T15:35:36.181Z,16.78
2023-04-13T15:38:03.669Z,16.76
2023-04-13T15:40:35.490Z,16.79
2023-04-13T15:43:11.494Z,16.68
2023-04-13T15:45:38.970Z,16.95
2023-04-13T15:48:07.326Z,16.94
2023-04-13T15:50:34.649Z,16.59
2023-04-13T15:53:01.897Z,17.17
2023-04-13T15:55:29.629Z,17.47
2023-04-13T15:57:59.969Z,17.43
2023-04-13T16:00:27.683Z,17.75
2023-04-13T16:02:56.221Z,18.12
2023-04-13T16:05:31.297Z,18.07
2023-04-13T16:07:59.098Z,18.22
2023-04-13T16:10:27.317Z,18.20
2023-04-13T16:12:55.088Z,18.83
2023-04-13T16:15:25.172Z,17.97
2023-04-13T16:17:56.596Z,17.80
2023-04-13T16:20:28.647Z,17.68
2023-04-13T16:23:02.546Z,17.75
2023-04-13T16:25:30.897Z,17.52
2023-04-13T16:27:58.328Z,17.46
2023-04-13T16:30:28.674Z,17.65
2023-04-13T16:32:58.317Z,17.64
2023-04-13T16:35:28.386Z,17.96
2023-04-13T16:37:56.376Z,17.50
2023-04-13T16:40:26.900Z,18.03
2023-04-13T16:42:54.156Z,17.94
2023-04-13T16:45:24.660Z,17.96
2023-04-13T16:47:57.793Z,18.04
2023-04-13T16:50:30.417Z,18.55
2023-04-13T16:52:59.033Z,18.30
2023-04-13T16:55:28.708Z,18.41
2023-04-13T16:57:56.289Z,18.56
2023-04-13T17:00:26.866Z,18.40
2023-04-13T17:02:54.486Z,18.53
2023-04-13T17:05:21.791Z,18.21
2023-04-13T17:07:49.112Z,18.25
2023-04-13T17:10:19.812Z,18.61
2023-04-13T17:12:48.387Z,18.37
2023-04-13T17:15:15.518Z,24.18
2023-04-13T17:17:46.092Z,26.48
2023-04-13T17:20:17.121Z,32.61
2023-04-13T17:22:48.958Z,32.96
2023-04-13T17:25:16.435Z,33.16
2023-04-13T17:27:43.878Z,33.00
2023-04-13T17:30:12.134Z,32.98
2023-04-13T17:32:39.481Z,33.33
2023-04-13T17:35:07.494Z,33.62
2023-04-13T17:37:38.086Z,33.79
2023-04-13T17:40:10.381Z,35.00
2023-04-13T17:42:40.602Z,33.38
2023-04-13T17:45:16.585Z,34.78
2023-04-13T17:47:46.220Z,37.03
2023-04-13T17:50:16.387Z,35.67
2023-04-13T17:52:48.589Z,35.39
2023-04-13T17:55:28.320Z,36.39
2023-04-13T17:58:00.999Z,35.01
2023-04-13T18:00:35.231Z,36.60
2023-04-13T18:03:05.698Z,36.56
2023-04-13T18:05:33.383Z,34.87
2023-04-13T18:08:00.951Z,35.96
2023-04-13T18:10:28.758Z,35.85
2023-04-13T18:13:04.455Z,36.04
2023-04-13T18:15:42.229Z,35.43
2023-04-13T18:18:13.013Z,36.25
2023-04-13T18:20:49.386Z,36.54
2023-04-13T18:23:22.520Z,36.51
2023-04-13T18:26:03.346Z,38.74
2023-04-13T18:28:47.704Z,38.17
2023-04-13T18:31:14.934Z,36.95
2023-04-13T18:33:45.513Z,37.64
2023-04-13T18:36:27.363Z,31.73
2023-04-13T18:39:01.453Z,27.58
2023-04-13T18:41:32.137Z,27.72
2023-04-13T18:44:04.176Z,32.56
2023-04-13T18:46:34.515Z,37.86
2023-04-13T18:49:03.072Z,36.96
2023-04-13T18:51:40.724Z,38.15
2023-04-13T18:54:16.942Z,39.98
2023-04-13T18:56:49.851Z,38.66
2023-04-13T18:59:17.829Z,38.52
2023-04-13T19:01:48.232Z,40.92
2023-04-13T19:04:18.027Z,41.57
2023-04-13T19:06:46.763Z,41.70
2023-04-13T19:09:14.327Z,40.69
2023-04-13T19:12:06.878Z,41.36
2023-04-13T19:14:40.048Z,41.01
2023-04-13T19:17:07.708Z,42.51
2023-04-13T19:19:46.389Z,41.86
2023-04-13T19:22:22.756Z,41.64
2023-04-13T19:25:00.337Z,40.78
2023-04-13T19:27:36.263Z,41.56
2023-04-13T19:30:19.050Z,41.67
2023-04-13T19:32:49.836Z,40.79
2023-04-13T19:35:18.413Z,41.20
2023-04-13T19:37:50.452Z,41.79
2023-04-13T19:40:18.158Z,41.09
2023-04-13T19:42:47.409Z,41.23
2023-04-13T19:45:20.989Z,42.08
2023-04-13T19:47:51.009Z,40.87
2023-04-13T19:50:25.975Z,41.84
2023-04-13T19:52:58.333Z,41.97
2023-04-13T19:55:27.178Z,41.29
2023-04-13T19:57:54.655Z,40.93
2023-04-13T20:00:24.879Z,40.69
2023-04-13T20:02:55.207Z,40.21
2023-04-13T20:05:26.034Z,39.96
2023-04-13T20:07:53.621Z,39.88
2023-04-13T20:10:20.993Z,39.42
2023-04-13T20:12:53.009Z,39.70
2023-04-13T20:15:20.311Z,38.74
2023-04-13T20:17:53.200Z,38.09
2023-04-13T20:23:08.244Z,37.42
2023-04-13T20:25:44.591Z,37.80
2023-04-13T20:28:12.350Z,37.88
2023-04-13T20:30:39.837Z,38.36
2023-04-13T20:33:10.359Z,38.22
2023-04-13T20:35:37.708Z,38.10
2023-04-13T20:38:15.308Z,38.30
2023-04-13T20:40:48.933Z,38.07
2023-04-13T20:43:19.460Z,38.37
2023-04-13T20:45:48.024Z,39.33
2023-04-13T20:50:53.841Z,39.24
2023-04-13T20:53:21.268Z,39.45
2023-04-13T20:55:54.069Z,39.69
2023-04-13T20:58:23.288Z,40.01
2023-04-13T21:00:50.580Z,39.97
2023-04-13T21:03:18.059Z,39.58
2023-04-13T21:05:47.163Z,40.14
2023-04-13T21:08:14.556Z,40.71
2023-04-13T21:10:42.314Z,40.69
2023-04-13T21:13:13.588Z,40.89
2023-04-13T21:15:41.199Z,41.16
2023-04-13T21:18:11.146Z,41.09
2023-04-13T21:20:43.463Z,41.28
2023-04-13T21:23:13.950Z,41.91
2023-04-13T21:25:45.697Z,41.46
2023-04-13T21:28:21.623Z,41.18
2023-04-13T21:30:48.950Z,40.78
2023-04-13T21:33:16.501Z,40.98
2023-04-13T21:35:46.312Z,40.80
2023-04-13T21:38:13.782Z,40.80
2023-04-13T21:40:43.951Z,40.97
2023-04-13T21:43:13.635Z,40.70
2023-04-13T21:45:51.262Z,41.66
2023-04-13T21:48:23.941Z,41.68
2023-04-13T21:50:55.364Z,41.65
2023-04-13T21:53:24.833Z,41.18
2023-04-13T21:55:54.911Z,41.46
2023-04-13T21:58:25.711Z,41.07
2023-04-13T22:01:01.999Z,41.17
2023-04-13T22:03:29.454Z,41.09
2023-04-13T22:06:01.650Z,41.19
2023-04-13T22:08:29.266Z,41.79
2023-04-13T22:11:02.148Z,41.92
2023-04-13T22:13:30.190Z,41.50
2023-04-13T22:16:02.778Z,42.17
2023-04-13T22:18:40.196Z,42.78
2023-04-13T22:21:12.798Z,42.51
2023-04-13T22:23:40.630Z,42.60
2023-04-13T22:26:11.508Z,43.06
2023-04-13T22:28:38.680Z,42.73
2023-04-13T22:31:13.627Z,43.67
2023-04-13T22:33:47.163Z,42.94
2023-04-13T22:36:21.720Z,43.45
2023-04-13T22:38:53.128Z,43.20
2023-04-13T22:41:27.966Z,43.42
2023-04-13T22:43:55.785Z,43.41
2023-04-13T22:46:26.519Z,43.28
2023-04-13T22:48:54.000Z,43.13
2023-04-13T22:51:22.914Z,43.18
2023-04-13T22:53:50.706Z,43.70
2023-04-13T22:56:20.722Z,43.61
2023-04-13T22:58:48.001Z,44.12
2023-04-13T23:01:15.478Z,43.73
2023-04-13T23:03:42.910Z,43.48
2023-04-13T23:06:14.668Z,44.11
2023-04-13T23:08:41.705Z,44.03
2023-04-13T23:11:12.065Z,44.15
2023-04-13T23:13:40.321Z,43.90
2023-04-13T23:16:11.809Z,43.53
2023-04-13T23:18:40.021Z,43.94
2023-04-13T23:21:11.112Z,44.67
2023-04-13T23:23:42.952Z,43.82
2023-04-13T23:26:10.671Z,43.66
2023-04-13T23:28:40.151Z,43.80
2023-04-13T23:31:10.599Z,43.80
2023-04-13T23:33:38.090Z,44.15
2023-04-13T23:36:06.300Z,44.16
2023-04-13T23:38:33.457Z,44.11
2023-04-13T23:41:00.952Z,44.33
2023-04-13T23:43:31.488Z,44.12
2023-04-13T23:46:03.238Z,44.56
2023-04-13T23:48:30.803Z,44.46
2023-04-13T23:50:58.059Z,44.29
2023-04-13T23:53:25.263Z,44.06
2023-04-13T23:55:52.456Z,44.95
2023-04-13T23:58:19.656Z,44.39
